Time;durP1;ratioP1;P1;durP2;ratioP2;P2;SDS_P1;SDS_P2;PMS_P1;PMS_P2;Temp;Humidity;BMP_temperature;BMP_pressure;BME280_temperature;BME280_humidity;BME280_pressure;Samples;Min_cycle;Max_cycle;Signal;HPM_P1;HPM_P2
2023/05/20 00:02:15;;;;;;;5.65;2.63;;;18.60;72.20;;;;;;5013483;28;20081;-30
2023/05/20 00:04:42;;;;;;;4.70;2.60;;;19.30;72.50;;;;;;5013226;28;20499;-30
2023/05/20 00:07:09;;;;;;;4.20;2.42;;;19.10;72.10;;;;;;5013319;28;20112;-30
2023/05/20 00:09:37;;;;;;;4.72;2.75;;;19.50;65.70;;;;;;5013399;28;20133;-30
2023/05/20 00:12:05;;;;;;;5.97;2.80;;;19.30;73.00;;;;;;5013157;28;20133;-30
2023/05/20 00:14:32;;;;;;;4.28;2.53;;;;;;;;;;5012985;28;20060;-31
2023/05/20 00:16:59;;;;;;;6.28;3.10;;;;;;;;;;5013388;28;20133;-30
2023/05/20 00:19:27;;;;;;;4.28;2.60;;;19.40;54.40;;;;;;5013347;28;20050;-31
2023/05/20 00:21:56;;;;;;;4.82;2.50;;;;;;;;;;5012828;28;20414;-31
2023/05/20 00:24:23;;;;;;;4.35;2.70;;;19.80;73.40;;;;;;5013086;28;20050;-30
2023/05/20 00:26:49;;;;;;;3.65;2.50;;;19.00;72.10;;;;;;5012991;28;20041;-30
2023/05/20 00:29:16;;;;;;;4.97;2.67;;;;;;;;;;5013253;28;20132;-30
2023/05/20 00:31:43;;;;;;;5.13;2.58;;;18.40;72.30;;;;;;5012999;28;20046;-30
2023/05/20 00:34:10;;;;;;;3.75;2.60;;;19.60;73.00;;;;;;5012523;28;20137;-30
2023/05/20 00:36:38;;;;;;;6.05;2.58;;;20.40;70.10;;;;;;5011753;28;20057;-30
2023/05/20 00:39:05;;;;;;;5.35;2.75;;;18.90;67.40;;;;;;5012858;28;20132;-30
2023/05/20 00:41:32;;;;;;;5.18;2.70;;;19.50;72.80;;;;;;5012734;28;20498;-30
2023/05/20 00:43:59;;;;;;;5.32;2.53;;;;;;;;;;5012718;28;20046;-30
2023/05/20 00:46:26;;;;;;;4.40;2.40;;;19.50;72.80;;;;;;5012615;28;20128;-29
2023/05/20 00:48:53;;;;;;;5.13;3.03;;;19.60;61.00;;;;;;5012695;28;20077;-30
2023/05/20 00:51:20;;;;;;;5.03;2.70;;;19.30;67.80;;;;;;5011608;28;20133;-30
2023/05/20 00:53:48;;;;;;;5.13;2.80;;;18.40;72.20;;;;;;5012182;28;20132;-30
2023/05/20 00:56:15;;;;;;;5.53;2.65;;;20.10;73.60;;;;;;5012608;28;20049;-30
2023/05/20 00:58:41;;;;;;;4.70;2.67;;;19.40;67.40;;;;;;5012715;28;20054;-30
2023/05/20 01:01:08;;;;;;;4.30;2.60;;;19.00;73.40;;;;;;5012668;28;20081;-29
2023/05/20 01:03:35;;;;;;;5.03;2.67;;;;;;;;;;5012201;28;20048;-30
2023/05/20 01:06:02;;;;;;;4.45;2.83;;;18.90;73.30;;;;;;5011998;28;20049;-30
2023/05/20 01:08:29;;;;;;;5.57;3.22;;;18.90;72.90;;;;;;5012651;28;20053;-30
2023/05/20 01:10:59;;;;;;;5.35;2.78;;;18.10;59.30;;;;;;5012507;28;20072;-30
2023/05/20 01:13:28;;;;;;;4.38;2.85;;;19.60;71.30;;;;;;5012142;28;20125;-30
2023/05/20 01:15:55;;;;;;;5.43;3.00;;;19.50;72.90;;;;;;5012367;28;20125;-30
2023/05/20 01:18:24;;;;;;;3.70;2.70;;;18.20;63.10;;;;;;5011875;28;20057;-29
2023/05/20 01:20:51;;;;;;;5.50;3.10;;;19.50;73.20;;;;;;5012244;28;20057;-30
2023/05/20 01:23:19;;;;;;;4.28;2.70;;;19.20;56.30;;;;;;5011809;28;20053;-30
2023/05/20 01:25:46;;;;;;;5.10;2.85;;;;;;;;;;5012090;28;20509;-30
2023/05/20 01:28:16;;;;;;;4.35;2.60;;;19.20;72.60;;;;;;5012111;28;20410;-30
2023/05/20 01:30:46;;;;;;;4.53;2.75;;;19.20;73.20;;;;;;5012222;28;20410;-30
2023/05/20 01:33:13;;;;;;;5.15;2.65;;;19.40;73.70;;;;;;5011395;28;20053;-30
2023/05/20 01:35:41;;;;;;;4.53;2.65;;;;;;;;;;5012312;28;20097;-32
2023/05/20 01:38:07;;;;;;;6.30;3.08;;;18.70;72.40;;;;;;5011303;28;20060;-30
2023/05/20 01:40:35;;;;;;;5.35;2.80;;;19.20;54.40;;;;;;5012259;28;20056;-31
2023/05/20 01:43:02;;;;;;;5.60;2.70;;;19.00;72.90;;;;;;5011604;28;20141;-30
2023/05/20 01:45:29;;;;;;;5.78;3.28;;;19.00;73.00;;;;;;5011921;28;20128;-30
2023/05/20 01:47:56;;;;;;;4.88;2.90;;;;;;;;;;5011677;28;20424;-30
2023/05/20 01:50:23;;;;;;;4.57;2.80;;;18.60;59.60;;;;;;5011913;28;20192;-30
2023/05/20 01:52:49;;;;;;;5.10;2.95;;;20.00;73.40;;;;;;5011877;28;20129;-30
2023/05/20 01:55:16;;;;;;;4.70;2.78;;;19.40;73.60;;;;;;5011797;28;20053;-30
2023/05/20 01:57:44;;;;;;;4.38;2.85;;;19.20;62.90;;;;;;5011955;28;20133;-30
2023/05/20 02:00:12;;;;;;;5.57;2.92;;;18.90;60.50;;;;;;5011734;28;20124;-30
2023/05/20 02:02:38;;;;;;;4.53;2.58;;;18.60;73.20;;;;;;5014396;28;20586;-30
2023/05/20 02:05:06;;;;;;;6.07;3.00;;;19.30;61.70;;;;;;5015824;28;20133;-30
2023/05/20 02:07:32;;;;;;;4.82;2.90;;;19.20;73.50;;;;;;5015863;28;20136;-30
2023/05/20 02:09:59;;;;;;;4.97;2.60;;;;;;;;;;5015644;28;20501;-31
2023/05/20 02:12:26;;;;;;;4.65;2.65;;;19.20;73.50;;;;;;5015215;28;20050;-30
2023/05/20 02:14:54;;;;;;;4.13;2.53;;;19.50;73.50;;;;;;5015359;28;20132;-30
2023/05/20 02:17:21;;;;;;;4.70;2.78;;;;;;;;;;5015476;28;20052;-31
2023/05/20 02:19:48;;;;;;;5.30;3.05;;;19.30;72.60;;;;;;5015324;28;20467;-30
2023/05/20 02:22:15;;;;;;;4.15;2.72;;;;;;;;;;5015223;28;20132;-30
2023/05/20 02:24:43;;;;;;;4.85;2.75;;;19.10;70.90;;;;;;5015203;28;20064;-30
2023/05/20 02:27:10;;;;;;;3.60;2.42;;;19.40;72.80;;;;;;5015329;28;20137;-30
2023/05/20 02:29:37;;;;;;;4.20;2.95;;;18.50;72.70;;;;;;5015159;28;20078;-30
2023/05/20 02:32:06;;;;;;;4.53;2.63;;;19.10;54.40;;;;;;5014717;28;20132;-30
2023/05/20 02:34:33;;;;;;;3.42;2.30;;;19.20;73.50;;;;;;5014913;28;20050;-30
2023/05/20 02:37:00;;;;;;;4.28;2.60;;;19.20;73.20;;;;;;5014797;28;20046;-30
2023/05/20 02:39:27;;;;;;;4.40;2.65;;;18.70;71.60;;;;;;5015092;28;20056;-30
2023/05/20 02:41:54;;;;;;;3.65;2.28;;;19.40;72.80;;;;;;5014774;28;20050;-30
2023/05/20 02:44:21;;;;;;;4.40;2.70;;;18.70;65.60;;;;;;5014535;28;20125;-30
2023/05/20 02:46:47;;;;;;;5.45;2.72;;;19.30;72.80;;;;;;5015245;28;20446;-30
2023/05/20 02:49:15;;;;;;;3.88;2.25;;;19.10;54.40;;;;;;5014862;28;20516;-31
2023/05/20 02:51:43;;;;;;;4.00;2.60;;;;;;;;;;5014757;28;20089;-31
2023/05/20 02:54:09;;;;;;;4.30;2.72;;;19.40;73.20;;;;;;5014548;28;20125;-30
2023/05/20 02:56:36;;;;;;;4.55;2.50;;;19.10;73.20;;;;;;5014761;28;20050;-30
2023/05/20 02:59:03;;;;;;;4.32;2.58;;;;;;;;;;5014474;28;20056;-30
2023/05/20 03:01:30;;;;;;;3.95;2.33;;;19.80;73.50;;;;;;5014821;28;20132;-30
2023/05/20 03:03:57;;;;;;;4.13;2.33;;;;;;;;;;5014528;28;20048;-31
2023/05/20 03:06:25;;;;;;;4.43;2.42;;;18.60;72.80;;;;;;5014448;28;20049;-30
2023/05/20 03:08:52;;;;;;;3.72;2.35;;;18.60;72.50;;;;;;5014695;28;20184;-30
2023/05/20 03:11:19;;;;;;;3.78;2.17;;;18.80;72.50;;;;;;5014454;28;20614;-30
2023/05/20 03:13:45;;;;;;;3.35;2.30;;;19.30;66.10;;;;;;5013141;28;20052;-30
2023/05/20 03:16:12;;;;;;;3.55;2.50;;;18.80;72.50;;;;;;5013997;28;20634;-30
2023/05/20 03:18:39;;;;;;;3.88;2.15;;;;;;;;;;5014580;28;20050;-31
2023/05/20 03:21:07;;;;;;;3.85;2.40;;;18.80;73.00;;;;;;5014458;28;20085;-30
2023/05/20 03:23:35;;;;;;;3.70;2.42;;;19.10;58.30;;;;;;5013762;28;20046;-30
2023/05/20 03:26:02;;;;;;;3.35;2.30;;;;;;;;;;5014491;28;20046;-30
2023/05/20 03:28:29;;;;;;;4.20;2.17;;;19.20;72.80;;;;;;5013712;28;20057;-30
2023/05/20 03:30:56;;;;;;;3.90;2.40;;;18.90;61.10;;;;;;5014288;28;20124;-30
2023/05/20 03:33:24;;;;;;;3.97;2.45;;;18.90;73.00;;;;;;5013635;28;20483;-30
2023/05/20 03:35:52;;;;;;;3.97;2.50;;;;;;;;;;5013648;28;20057;-30
2023/05/20 03:38:18;;;;;;;3.50;2.13;;;18.90;73.50;;;;;;5013894;28;20049;-30
2023/05/20 03:40:46;;;;;;;4.15;2.55;;;18.50;72.90;;;;;;5014241;28;20132;-30
2023/05/20 03:43:13;;;;;;;3.28;2.38;;;18.50;72.40;;;;;;5013107;28;20418;-30
2023/05/20 03:45:40;;;;;;;3.45;2.20;;;;;;;;;;5013963;28;20145;-31
2023/05/20 03:48:07;;;;;;;2.75;1.95;;;18.80;73.50;;;;;;5013843;28;20400;-30
2023/05/20 03:50:34;;;;;;;4.03;2.50;;;18.80;72.60;;;;;;5013756;28;20081;-30
2023/05/20 03:53:01;;;;;;;3.13;2.08;;;;;;;;;;5013465;28;20394;-30
2023/05/20 03:55:27;;;;;;;3.05;2.00;;;19.40;73.80;;;;;;5013822;28;20384;-30
2023/05/20 03:57:55;;;;;;;3.22;2.00;;;19.70;73.50;;;;;;5013547;28;20128;-30
2023/05/20 04:00:22;;;;;;;3.63;2.38;;;19.10;73.00;;;;;;5013463;28;20081;-30
2023/05/20 04:02:49;;;;;;;4.35;2.47;;;18.20;72.30;;;;;;5013315;28;20507;-30
2023/05/20 04:05:16;;;;;;;3.50;2.20;;;18.90;73.20;;;;;;5013497;28;20133;-30
2023/05/20 04:07:43;;;;;;;4.10;2.33;;;;;;;;;;5013130;28;20574;-30
2023/05/20 04:10:11;;;;;;;3.58;2.00;;;18.70;72.60;;;;;;5013608;28;20480;-30
2023/05/20 04:12:38;;;;;;;3.60;2.10;;;19.70;74.00;;;;;;5012778;28;20135;-30
2023/05/20 04:15:07;;;;;;;3.63;2.22;;;19.50;59.60;;;;;;5013386;28;20045;-30
2023/05/20 04:17:37;;;;;;;3.80;2.20;;;19.00;72.80;;;;;;5013320;28;20081;-30
2023/05/20 04:20:06;;;;;;;3.08;1.98;;;19.10;67.30;;;;;;5012977;28;20050;-30
2023/05/20 04:22:32;;;;;;;3.20;2.03;;;18.50;72.60;;;;;;5012983;28;20058;-30
2023/05/20 04:25:02;;;;;;;3.42;1.88;;;;;;;;;;5012654;28;20081;-31
2023/05/20 04:27:28;;;;;;;2.97;2.00;;;19.00;73.70;;;;;;5013139;28;20415;-30
2023/05/20 04:29:57;;;;;;;3.85;2.10;;;18.80;72.70;;;;;;5013271;28;20607;-30
2023/05/20 04:32:25;;;;;;;2.38;1.80;;;18.80;72.00;;;;;;5012835;28;20053;-30
2023/05/20 04:34:54;;;;;;;2.92;2.05;;;19.10;73.00;;;;;;5012331;28;20774;-30
2023/05/20 04:37:21;;;;;;;2.88;1.92;;;18.80;72.70;;;;;;5012497;28;20046;-30
2023/05/20 04:39:48;;;;;;;4.22;2.03;;;;;;;;;;5012924;28;20053;-31
2023/05/20 04:42:17;;;;;;;2.97;1.98;;;19.20;72.80;;;;;;5012764;28;20054;-30
2023/05/20 04:44:44;;;;;;;2.47;1.80;;;18.80;72.90;;;;;;5012722;28;20597;-30
2023/05/20 04:47:11;;;;;;;2.92;2.17;;;18.80;72.70;;;;;;5012896;28;20054;-30
2023/05/20 04:49:39;;;;;;;2.97;1.98;;;18.90;54.30;;;;;;5012342;28;20057;-30
2023/05/20 04:52:06;;;;;;;2.90;1.90;;;19.20;55.00;;;;;;5012700;28;20473;-30
2023/05/20 04:54:33;;;;;;;3.65;1.70;;;19.00;72.70;;;;;;5012498;28;20060;-30
2023/05/20 04:57:00;;;;;;;2.20;1.67;;;18.50;72.60;;;;;;5012352;28;20053;-29
2023/05/20 04:59:27;;;;;;;2.20;1.50;;;;;;;;;;5012548;28;20054;-30
2023/05/20 05:01:54;;;;;;;2.20;1.63;;;19.00;73.70;;;;;;5012594;28;20129;-30
2023/05/20 05:04:21;;;;;;;2.80;1.60;;;18.60;67.30;;;;;;5011864;28;20130;-30
2023/05/20 05:06:50;;;;;;;3.53;1.83;;;18.80;54.30;;;;;;5012383;28;20050;-31
2023/05/20 05:09:17;;;;;;;2.90;1.90;;;;;;;;;;5012508;28;20128;-31
2023/05/20 05:11:43;;;;;;;2.50;1.73;;;18.00;72.60;;;;;;5012320;28;20410;-30
2023/05/20 05:14:10;;;;;;;2.90;1.90;;;19.20;72.90;;;;;;5011678;28;20128;-30
2023/05/20 05:16:37;;;;;;;3.25;1.90;;;;;;;;;;5012320;28;20487;-30
2023/05/20 05:19:04;;;;;;;2.80;1.77;;;19.00;72.80;;;;;;5012006;28;20558;-30
2023/05/20 05:21:31;;;;;;;2.88;1.73;;;19.20;72.90;;;;;;5012427;28;20080;-30
2023/05/20 05:23:59;;;;;;;4.03;1.88;;;19.30;72.90;;;;;;5011788;28;20405;-29
2023/05/20 05:26:26;;;;;;;2.28;1.60;;;18.90;72.70;;;;;;5012205;28;20050;-30
2023/05/20 05:28:53;;;;;;;3.25;1.80;;;19.00;73.60;;;;;;5011913;28;20064;-30
2023/05/20 05:31:20;;;;;;;2.35;1.50;;;19.10;72.80;;;;;;5012351;28;20125;-30
2023/05/20 05:33:47;;;;;;;2.13;1.40;;;19.30;73.30;;;;;;5011765;28;20046;-30
2023/05/20 05:36:14;;;;;;;3.05;1.70;;;18.20;60.70;;;;;;5011148;28;20042;-30
2023/05/20 05:38:40;;;;;;;3.42;1.98;;;18.50;72.60;;;;;;5012211;28;20058;-29
2023/05/20 05:41:09;;;;;;;2.35;1.52;;;18.10;72.60;;;;;;5011920;28;20058;-30
2023/05/20 05:43:36;;;;;;;3.33;1.42;;;;;;;;;;5011765;28;20137;-31
2023/05/20 05:46:03;;;;;;;2.72;1.48;;;17.60;72.10;;;;;;5011609;28;20133;-30
2023/05/20 05:48:30;;;;;;;2.92;1.70;;;19.10;71.10;;;;;;5012074;28;20045;-30
2023/05/20 05:50:57;;;;;;;2.65;1.70;;;19.30;72.90;;;;;;5011671;28;20554;-30
2023/05/20 05:53:24;;;;;;;2.92;1.80;;;19.00;72.80;;;;;;5011593;28;20129;-29
2023/05/20 05:55:50;;;;;;;2.28;1.45;;;18.90;66.60;;;;;;5011864;28;20085;-30
2023/05/20 05:58:18;;;;;;;3.35;1.70;;;18.40;72.50;;;;;;5012076;28;20486;-30
2023/05/20 06:00:45;;;;;;;3.13;1.55;;;;;;;;;;5011750;28;20054;-31
2023/05/20 06:03:12;;;;;;;2.10;1.30;;;;;;;;;;5011518;28;20052;-32
2023/05/20 06:05:39;;;;;;;2.50;1.42;;;18.60;72.70;;;;;;5011768;28;20133;-30
2023/05/20 06:08:06;;;;;;;2.67;1.55;;;;;;;;;;5008951;28;20845;-31
2023/05/20 06:10:33;;;;;;;2.22;1.60;;;18.40;72.50;;;;;;5011441;28;20060;-30
2023/05/20 06:13:00;;;;;;;2.38;1.60;;;18.80;72.70;;;;;;5009589;28;20145;-30
2023/05/20 06:15:28;;;;;;;2.45;1.52;;;19.20;61.40;;;;;;5002447;28;20042;-31
2023/05/20 06:17:55;;;;;;;1.88;1.50;;;19.40;60.70;;;;;;5003194;28;20125;-30
2023/05/20 06:20:21;;;;;;;2.33;1.60;;;19.40;73.00;;;;;;5011227;28;20050;-30
2023/05/20 06:22:48;;;;;;;2.78;1.60;;;18.20;72.70;;;;;;5010938;28;20054;-30
2023/05/20 06:25:15;;;;;;;4.55;1.77;;;18.70;56.30;;;;;;5011282;28;20084;-31
2023/05/20 06:27:42;;;;;;;2.63;1.50;;;18.90;72.70;;;;;;5000619;28;20558;-30
2023/05/20 06:30:09;;;;;;;3.33;1.50;;;18.90;72.80;;;;;;4999822;28;20053;-30
2023/05/20 06:32:37;;;;;;;2.42;1.50;;;18.60;72.50;;;;;;5008342;28;20128;-30
2023/05/20 06:35:05;;;;;;;2.25;1.50;;;18.80;73.50;;;;;;5011399;28;20054;-30
2023/05/20 06:37:32;;;;;;;2.17;1.42;;;;;;;;;;5010956;28;20554;-31
2023/05/20 06:39:58;;;;;;;2.53;1.50;;;18.30;72.30;;;;;;5011060;28;20558;-30
2023/05/20 06:42:25;;;;;;;2.47;1.40;;;19.00;72.80;;;;;;5011242;28;20049;-30
2023/05/20 06:44:52;;;;;;;1.73;1.40;;;18.90;64.20;;;;;;5011486;28;20182;-30
2023/05/20 06:47:18;;;;;;;1.73;1.25;;;19.30;72.80;;;;;;4998759;28;20054;-30
2023/05/20 06:49:46;;;;;;;2.30;1.30;;;18.90;58.40;;;;;;4994875;28;20062;-30
2023/05/20 06:52:13;;;;;;;2.83;1.50;;;;;;;;;;4995042;28;20065;-31
2023/05/20 06:54:41;;;;;;;2.08;1.60;;;;;;;;;;4995199;28;20046;-30
2023/05/20 06:57:08;;;;;;;2.45;1.60;;;19.10;72.80;;;;;;4995110;28;20058;-30
2023/05/20 06:59:35;;;;;;;4.68;1.50;;;18.50;72.30;;;;;;5013730;28;20053;-31
2023/05/20 07:02:02;;;;;;;2.10;1.40;;;18.60;64.80;;;;;;5014068;28;20046;-30
2023/05/20 07:04:28;;;;;;;2.28;1.40;;;19.70;66.00;;;;;;5013451;28;20041;-30
2023/05/20 07:06:57;;;;;;;2.45;1.50;;;18.80;72.60;;;;;;5014787;28;20133;-30
2023/05/20 07:09:24;;;;;;;2.15;1.50;;;18.40;72.50;;;;;;5014595;28;20136;-30
2023/05/20 07:11:51;;;;;;;2.45;1.42;;;;;;;;;;5014217;28;20144;-31
2023/05/20 07:14:18;;;;;;;1.60;1.27;;;;;;;;;;5012690;28;20068;-31
2023/05/20 07:16:45;;;;;;;2.17;1.50;;;;;;;;;;5014253;28;20104;-32
2023/05/20 07:19:12;;;;;;;2.15;1.50;;;;;;;;;;5014037;28;20419;-30
2023/05/20 07:21:39;;;;;;;2.65;1.30;;;;;;;;;;5014540;28;20075;-31
2023/05/20 07:24:07;;;;;;;2.00;1.50;;;18.70;72.90;;;;;;5013885;28;20104;-30
2023/05/20 07:26:35;;;;;;;2.10;1.30;;;18.90;73.50;;;;;;5014270;28;20136;-30
2023/05/20 07:29:02;;;;;;;2.30;1.35;;;19.10;73.50;;;;;;5014347;28;20104;-30
2023/05/20 07:31:30;;;;;;;4.00;1.50;;;;;;;;;;5010260;28;20050;-31
2023/05/20 07:33:56;;;;;;;3.95;1.50;;;19.20;72.70;;;;;;5013766;28;20053;-30
2023/05/20 07:36:23;;;;;;;2.35;1.52;;;;;;;;;;5013543;28;20132;-32
2023/05/20 07:38:50;;;;;;;3.17;1.50;;;18.60;73.10;;;;;;5014054;28;20050;-30
2023/05/20 07:41:19;;;;;;;2.63;1.30;;;18.80;54.20;;;;;;5013693;28;20050;-32
2023/05/20 07:43:45;;;;;;;2.13;1.30;;;19.10;54.30;;;;;;5013607;28;20133;-31
2023/05/20 07:46:12;;;;;;;1.90;1.30;;;18.90;72.40;;;;;;5013536;28;20049;-30
2023/05/20 07:48:39;;;;;;;4.63;1.77;;;;;;;;;;5013796;28;20133;-31
2023/05/20 07:51:06;;;;;;;4.53;1.40;;;19.10;69.50;;;;;;5002487;28;20054;-31
2023/05/20 07:53:33;;;;;;;1.88;1.38;;;18.80;71.00;;;;;;5003709;28;20125;-30
2023/05/20 07:56:00;;;;;;;2.25;1.20;;;19.30;61.00;;;;;;5004865;28;20042;-31
2023/05/20 07:58:30;;;;;;;2.92;1.40;;;19.10;72.20;;;;;;5004291;28;20554;-30
2023/05/20 08:00:57;;;;;;;1.63;1.20;;;18.20;71.10;;;;;;5006497;28;20459;-30
2023/05/20 08:03:23;;;;;;;1.80;1.30;;;18.80;71.70;;;;;;5013262;28;20132;-30
2023/05/20 08:05:50;;;;;;;2.42;1.45;;;;;;;;;;5007542;28;20485;-31
2023/05/20 08:08:17;;;;;;;3.20;1.50;;;18.80;73.60;;;;;;5004207;28;20438;-30
2023/05/20 08:10:44;;;;;;;1.42;1.13;;;;;;;;;;5008777;28;20057;-30
2023/05/20 08:13:11;;;;;;;2.90;1.35;;;18.60;73.50;;;;;;5013066;28;20049;-30
2023/05/20 08:15:39;;;;;;;2.42;1.23;;;19.20;73.40;;;;;;5013314;28;20152;-30
2023/05/20 08:18:05;;;;;;;1.67;1.20;;;19.70;74.70;;;;;;5013369;28;20049;-30
2023/05/20 08:20:32;;;;;;;3.05;1.10;;;;;;;;;;5013362;28;20068;-31
2023/05/20 08:23:00;;;;;;;2.33;1.48;;;;;;;;;;5013778;28;20133;-31
2023/05/20 08:25:27;;;;;;;1.88;1.38;;;;;;;;;;5011438;28;20128;-32
2023/05/20 08:27:53;;;;;;;1.60;1.25;;;18.80;72.90;;;;;;5011946;28;20136;-30
2023/05/20 08:30:20;;;;;;;1.75;1.20;;;20.10;73.40;;;;;;5012257;28;20525;-30
2023/05/20 08:32:48;;;;;;;2.58;1.48;;;19.20;66.30;;;;;;5012299;28;20052;-31
2023/05/20 08:35:15;;;;;;;1.58;1.17;;;19.90;64.70;;;;;;5012313;28;20042;-30
2023/05/20 08:37:42;;;;;;;1.70;1.20;;;20.20;73.10;;;;;;5011314;28;20058;-30
2023/05/20 08:40:10;;;;;;;2.63;1.35;;;19.20;72.30;;;;;;4997710;28;20054;-30
2023/05/20 08:42:37;;;;;;;2.30;1.50;;;;;;;;;;4991541;28;20058;-32
2023/05/20 08:45:05;;;;;;;1.50;1.10;;;19.60;53.30;;;;;;4991394;28;20050;-31
2023/05/20 08:47:31;;;;;;;1.52;1.13;;;18.60;64.30;;;;;;4991907;28;20138;-30
2023/05/20 08:49:59;;;;;;;1.98;1.25;;;20.20;72.80;;;;;;4992262;28;20056;-30
2023/05/20 08:52:26;;;;;;;2.58;1.20;;;20.20;71.80;;;;;;4991915;28;20138;-30
2023/05/20 08:54:54;;;;;;;2.35;1.30;;;;;;;;;;5010754;28;20533;-30
2023/05/20 08:57:21;;;;;;;2.15;1.27;;;19.80;71.60;;;;;;5012618;28;20045;-30
2023/05/20 08:59:48;;;;;;;2.03;1.20;;;;;;;;;;5012586;28;20108;-32
2023/05/20 09:02:15;;;;;;;1.70;1.17;;;;;;;;;;5012562;28;20058;-30
2023/05/20 09:04:42;;;;;;;2.55;1.30;;;;;;;;;;5011818;28;20052;-31
2023/05/20 09:07:10;;;;;;;2.08;1.25;;;19.80;52.80;;;;;;5010958;28;20133;-31
2023/05/20 09:09:37;;;;;;;2.42;1.00;;;19.80;71.30;;;;;;5011663;28;20138;-31
2023/05/20 09:12:04;;;;;;;1.20;1.00;;;;;;;;;;5008128;28;20738;-31
2023/05/20 09:14:31;;;;;;;1.50;1.00;;;20.20;71.70;;;;;;4998830;28;20511;-30
2023/05/20 09:16:58;;;;;;;2.70;1.30;;;;;;;;;;5008720;28;20060;-32
2023/05/20 09:19:25;;;;;;;2.38;1.20;;;20.40;71.30;;;;;;5012154;28;20132;-30
2023/05/20 09:21:53;;;;;;;2.50;1.30;;;19.60;71.30;;;;;;5011621;28;20042;-30
2023/05/20 09:24:23;;;;;;;1.65;1.10;;;20.00;52.70;;;;;;5012144;28;20049;-30
2023/05/20 09:26:49;;;;;;;1.85;1.30;;;19.50;71.20;;;;;;5011922;28;20046;-30
2023/05/20 09:29:18;;;;;;;1.67;1.20;;;;;;;;;;5012181;28;20061;-30
2023/05/20 09:31:45;;;;;;;1.25;1.00;;;19.70;56.80;;;;;;5011746;28;20100;-31
2023/05/20 09:34:11;;;;;;;1.50;1.08;;;19.80;70.70;;;;;;5011668;28;20049;-30
2023/05/20 09:36:38;;;;;;;1.50;1.20;;;;;;;;;;5011301;28;20368;-30
2023/05/20 09:39:05;;;;;;;2.05;1.25;;;19.80;66.80;;;;;;5012270;28;20410;-30
2023/05/20 09:41:39;;;;;;;2.22;1.25;;;19.90;65.80;;;;;;5011946;28;20133;-30
2023/05/20 09:44:06;;;;;;;1.92;1.08;;;;;;;;;;5000464;28;20049;-30
2023/05/20 09:46:34;;;;;;;1.40;1.13;;;;;;;;;;5001534;28;20054;-32
2023/05/20 09:49:00;;;;;;;2.05;1.25;;;20.20;70.70;;;;;;5011978;28;20050;-30
2023/05/20 09:51:28;;;;;;;1.20;1.10;;;20.30;52.60;;;;;;5011889;28;20177;-31
2023/05/20 09:53:55;;;;;;;1.58;1.10;;;20.60;71.00;;;;;;5011942;28;20483;-30
2023/05/20 09:56:23;;;;;;;1.98;1.17;;;20.30;52.50;;;;;;5011548;28;20049;-30
2023/05/20 09:58:51;;;;;;;1.58;1.17;;;20.40;52.60;;;;;;5011706;28;20054;-30
2023/05/20 10:01:18;;;;;;;3.15;1.20;;;20.20;64.60;;;;;;5011822;28;20134;-30
2023/05/20 10:03:45;;;;;;;1.85;1.35;;;;;;;;;;5011421;28;20050;-30
2023/05/20 10:06:28;;;;;;;1.65;1.20;;;20.40;52.50;;;;;;4994318;28;20053;-31
2023/05/20 10:09:02;;;;;;;1.40;1.25;;;19.90;62.10;;;;;;5011739;28;20137;-30
2023/05/20 10:11:33;;;;;;;1.45;1.05;;;21.60;69.60;;;;;;5008447;28;20054;-30
2023/05/20 10:14:09;;;;;;;1.23;1.10;;;20.50;52.40;;;;;;4991669;28;20133;-32
2023/05/20 10:16:44;;;;;;;1.83;1.25;;;20.70;57.80;;;;;;5002717;28;20465;-30
2023/05/20 10:19:16;;;;;;;1.73;1.20;;;20.50;52.40;;;;;;5011626;28;20395;-31
2023/05/20 10:21:42;;;;;;;1.30;1.10;;;20.10;60.40;;;;;;5008153;28;20050;-30
2023/05/20 10:24:10;;;;;;;1.45;1.00;;;20.60;71.50;;;;;;5009937;28;20137;-30
2023/05/20 10:26:37;;;;;;;1.40;1.08;;;20.30;70.70;;;;;;5015357;28;20045;-30
2023/05/20 10:29:16;;;;;;;1.25;1.08;;;20.90;70.70;;;;;;5006527;28;20142;-30
2023/05/20 10:31:48;;;;;;;1.48;1.10;;;19.90;55.70;;;;;;5015483;28;20049;-30
2023/05/20 10:34:15;;;;;;;1.05;0.95;;;20.50;52.40;;;;;;5004236;28;20426;-31
2023/05/20 10:36:46;;;;;;;1.75;1.20;;;20.40;71.00;;;;;;5002406;28;20045;-30
2023/05/20 10:39:15;;;;;;;1.80;1.00;;;20.60;68.10;;;;;;5014934;28;20050;-30
2023/05/20 10:41:42;;;;;;;1.10;1.00;;;19.70;70.20;;;;;;5015448;28;20053;-30
2023/05/20 10:44:08;;;;;;;1.58;1.00;;;21.10;70.80;;;;;;5015258;28;20080;-30
2023/05/20 10:46:38;;;;;;;2.00;1.10;;;20.90;64.60;;;;;;5014524;28;20132;-31
2023/05/20 10:49:04;;;;;;;1.42;1.00;;;20.90;71.70;;;;;;5013447;28;20507;-30
2023/05/20 10:51:31;;;;;;;1.42;1.00;;;20.50;60.10;;;;;;5014924;28;20138;-31
2023/05/20 10:53:58;;;;;;;2.13;1.10;;;20.80;71.70;;;;;;5014525;28;20425;-30
2023/05/20 10:56:26;;;;;;;0.98;0.90;;;20.30;70.60;;;;;;5014907;28;20132;-30
2023/05/20 10:58:54;;;;;;;1.00;0.93;;;20.40;52.50;;;;;;5014795;28;20050;-31
2023/05/20 11:01:24;;;;;;;1.02;0.90;;;20.40;52.40;;;;;;5010108;28;20056;-31
2023/05/20 11:03:53;;;;;;;1.30;1.05;;;20.80;71.60;;;;;;5006656;28;20049;-30
2023/05/20 11:06:20;;;;;;;1.08;0.90;;;;;;;;;;5014776;28;20046;-30
2023/05/20 11:08:47;;;;;;;1.77;1.00;;;;;;;;;;5008770;28;20443;-30
2023/05/20 11:11:14;;;;;;;0.98;0.90;;;20.50;67.80;;;;;;5014740;28;20132;-30
2023/05/20 11:13:41;;;;;;;2.47;1.10;;;20.60;71.10;;;;;;5004092;28;20060;-30
2023/05/20 11:16:08;;;;;;;1.50;0.90;;;;;;;;;;4994690;28;20134;-31
2023/05/20 11:18:35;;;;;;;1.40;1.13;;;;;;;;;;4995197;28;20129;-31
2023/05/20 11:21:03;;;;;;;1.77;0.95;;;20.90;52.80;;;;;;5013926;28;20077;-31
2023/05/20 11:23:30;;;;;;;1.77;1.15;;;20.80;59.70;;;;;;5013744;28;20132;-30
2023/05/20 11:25:57;;;;;;;2.40;0.93;;;20.30;70.40;;;;;;5014046;28;20060;-30
2023/05/20 11:28:24;;;;;;;1.58;1.10;;;20.50;71.50;;;;;;5014069;28;20125;-30
2023/05/20 11:30:51;;;;;;;1.17;0.90;;;20.90;71.60;;;;;;5014051;28;20133;-30
2023/05/20 11:33:18;;;;;;;1.17;0.85;;;;;;;;;;5013712;28;20523;-32
2023/05/20 11:35:46;;;;;;;1.40;1.10;;;21.20;71.00;;;;;;5013490;28;20054;-30
2023/05/20 11:38:14;;;;;;;1.73;1.10;;;20.50;52.70;;;;;;5003800;28;20053;-32
2023/05/20 11:40:43;;;;;;;1.40;1.05;;;20.50;52.70;;;;;;4994515;28;20046;-32
2023/05/20 11:43:11;;;;;;;1.33;1.00;;;20.00;70.50;;;;;;5008918;28;20050;-30
2023/05/20 11:45:41;;;;;;;1.45;1.00;;;19.90;52.40;;;;;;5013479;28;20133;-31
2023/05/20 11:48:08;;;;;;;2.55;0.98;;;20.30;71.60;;;;;;5013625;28;20554;-30
2023/05/20 11:50:38;;;;;;;1.75;1.25;;;19.50;52.80;;;;;;5013897;28;20407;-30
2023/05/20 11:53:05;;;;;;;1.52;1.10;;;20.20;71.60;;;;;;5013806;28;20054;-30
2023/05/20 11:55:33;;;;;;;1.10;1.00;;;20.80;71.30;;;;;;5013475;28;20077;-30
2023/05/20 11:58:00;;;;;;;1.40;1.08;;;20.50;70.80;;;;;;5013532;28;20053;-30
2023/05/20 12:00:27;;;;;;;1.08;0.98;;;;;;;;;;5013654;28;20133;-30
2023/05/20 12:02:54;;;;;;;1.40;1.10;;;21.30;71.30;;;;;;5013420;28;20088;-30
2023/05/20 12:05:20;;;;;;;1.65;0.90;;;20.00;70.90;;;;;;5013447;28;20128;-30
2023/05/20 12:07:48;;;;;;;1.33;1.10;;;;;;;;;;5012481;28;20450;-32
2023/05/20 12:10:14;;;;;;;1.25;1.02;;;20.40;71.10;;;;;;5013339;28;20112;-31
2023/05/20 12:12:44;;;;;;;1.00;0.90;;;20.40;53.00;;;;;;5012949;28;20050;-33
2023/05/20 12:15:11;;;;;;;2.13;0.93;;;20.30;71.00;;;;;;5013029;28;20049;-30
2023/05/20 12:17:45;;;;;;;2.50;1.10;;;19.30;53.60;;;;;;5013043;28;20041;-30
2023/05/20 12:20:14;;;;;;;2.10;1.25;;;19.80;69.90;;;;;;5013325;28;20053;-30
2023/05/20 12:22:40;;;;;;;2.35;0.98;;;20.30;71.30;;;;;;5012987;28;20056;-30
2023/05/20 12:25:08;;;;;;;1.05;0.90;;;20.40;53.00;;;;;;5013185;28;20481;-30
2023/05/20 12:27:34;;;;;;;1.65;1.00;;;20.30;70.90;;;;;;5012794;28;20424;-30
2023/05/20 12:30:03;;;;;;;1.23;1.00;;;20.10;71.70;;;;;;5012729;28;20133;-30
2023/05/20 12:32:30;;;;;;;1.00;0.90;;;20.10;70.80;;;;;;5012721;28;20642;-30
2023/05/20 12:34:56;;;;;;;1.25;1.02;;;19.80;59.40;;;;;;5012741;28;20064;-30
2023/05/20 12:37:23;;;;;;;1.33;1.00;;;20.60;71.10;;;;;;5012319;28;20050;-30
2023/05/20 12:39:50;;;;;;;1.23;0.93;;;20.30;71.30;;;;;;5012497;28;20119;-30
2023/05/20 12:42:17;;;;;;;1.38;1.13;;;;;;;;;;5012436;28;20534;-31
2023/05/20 12:44:44;;;;;;;1.63;1.10;;;;;;;;;;5001845;28;20521;-31
2023/05/20 12:47:12;;;;;;;2.97;1.20;;;20.40;53.00;;;;;;4992965;28;20474;-31
2023/05/20 12:49:39;;;;;;;1.40;1.10;;;;;;;;;;4993284;28;20137;-32
2023/05/20 12:52:06;;;;;;;1.15;1.00;;;;;;;;;;4992212;28;20596;-32
2023/05/20 12:54:33;;;;;;;1.40;1.15;;;21.10;68.50;;;;;;4992737;28;20053;-30
2023/05/20 12:57:00;;;;;;;1.50;1.10;;;20.30;70.90;;;;;;5001453;28;20129;-30
2023/05/20 12:59:27;;;;;;;2.95;1.20;;;;;;;;;;4999624;28;20133;-32
2023/05/20 13:01:54;;;;;;;1.23;1.00;;;20.80;72.10;;;;;;4992663;28;20046;-30
2023/05/20 13:04:22;;;;;;;1.50;1.00;;;20.10;70.80;;;;;;4993828;28;20125;-30
2023/05/20 13:06:49;;;;;;;1.50;1.05;;;20.50;71.10;;;;;;4992571;28;20050;-30
2023/05/20 13:09:16;;;;;;;1.52;1.00;;;;;;;;;;4992575;28;20419;-31
2023/05/20 13:11:43;;;;;;;1.17;1.00;;;;;;;;;;4993672;28;20360;-30